Time;durP1;ratioP1;P1;durP2;ratioP2;P2;SDS_P1;SDS_P2;PMS_P1;PMS_P2;Temp;Humidity;BMP_temperature;BMP_pressure;BME280_temperature;BME280_humidity;BME280_pressure;Samples;Min_cycle;Max_cycle;Signal;HPM_P1;HPM_P2
2022/09/25 00:00:58;;;;;;;42.60;22.70;;;;;;;5.18;100.00;99150.24;101122;1324;22709;-35
2022/09/25 00:03:25;;;;;;;36.50;22.10;;;;;;;5.16;100.00;99148.48;101116;1327;22742;-33
2022/09/25 00:05:51;;;;;;;38.60;21.80;;;;;;;5.13;100.00;99145.75;100868;1321;22790;-36
2022/09/25 00:08:17;;;;;;;35.80;20.40;;;;;;;5.09;100.00;99147.13;101146;1334;22880;-36
2022/09/25 00:10:46;;;;;;;41.60;23.40;;;;;;;5.04;100.00;99145.50;101118;1328;24370;-32
2022/09/25 00:13:12;;;;;;;16.90;11.70;;;;;;;5.01;100.00;99147.46;100954;1331;22489;-36
2022/09/25 00:15:37;;;;;;;43.50;24.70;;;;;;;4.98;100.00;99148.36;101092;1328;22708;-36
2022/09/25 00:18:03;;;;;;;31.40;16.80;;;;;;;4.95;100.00;99149.39;101083;1311;22761;-36
2022/09/25 00:20:29;;;;;;;26.90;17.50;;;;;;;4.91;100.00;99150.02;101078;1334;24946;-36
2022/09/25 00:22:55;;;;;;;35.20;15.70;;;;;;;4.86;100.00;99151.23;101061;1320;23105;-36
2022/09/25 00:25:21;;;;;;;45.90;20.90;;;;;;;4.84;100.00;99153.08;101093;1319;22932;-36
2022/09/25 00:27:49;;;;;;;26.00;14.70;;;;;;;4.81;100.00;99152.35;100983;1321;24925;-32
2022/09/25 00:30:14;;;;;;;27.30;17.60;;;;;;;4.82;100.00;99155.38;100972;1334;24255;-36
2022/09/25 00:32:40;;;;;;;42.50;24.50;;;;;;;4.84;100.00;99156.94;101093;1334;23220;-36
2022/09/25 00:35:06;;;;;;;44.40;24.90;;;;;;;4.89;100.00;99156.08;101094;1336;23217;-33
2022/09/25 00:37:33;;;;;;;53.70;20.20;;;;;;;4.87;100.00;99155.70;101062;1333;24433;-36
2022/09/25 00:39:58;;;;;;;38.80;18.80;;;;;;;4.83;100.00;99153.98;101116;1328;24244;-32
2022/09/25 00:42:24;;;;;;;39.10;19.20;;;;;;;4.81;100.00;99153.35;100888;1336;22742;-32
2022/09/25 00:44:55;;;;;;;33.40;18.30;;;;;;;4.77;100.00;99149.58;101111;1336;24380;-32
2022/09/25 00:47:25;;;;;;;37.60;19.90;;;;;;;4.74;100.00;99147.55;101101;1334;24582;-32
2022/09/25 00:49:51;;;;;;;25.30;15.30;;;;;;;4.75;100.00;99151.40;101068;1328;23200;-32
2022/09/25 00:52:16;;;;;;;28.20;15.60;;;;;;;4.72;100.00;99152.17;100464;1328;576045;-36
2022/09/25 00:54:47;;;;;;;39.50;18.10;;;;;;;4.70;100.00;99151.02;101061;1336;24405;-36
2022/09/25 00:57:15;;;;;;;35.00;19.40;;;;;;;4.67;100.00;99149.48;101088;1328;23097;-36
2022/09/25 00:59:45;;;;;;;35.20;18.40;;;;;;;4.64;100.00;99145.21;101088;1332;23216;-33
2022/09/25 01:02:15;;;;;;;32.50;20.30;;;;;;;4.63;100.00;99143.56;101071;1336;24372;-36
2022/09/25 01:04:41;;;;;;;27.90;16.50;;;;;;;4.63;100.00;99143.09;101073;1334;24372;-32
2022/09/25 01:07:07;;;;;;;51.10;23.30;;;;;;;4.61;100.00;99146.85;101042;1334;22913;-33
2022/09/25 01:09:34;;;;;;;32.70;19.30;;;;;;;4.59;100.00;99143.19;101028;1328;23097;-36
2022/09/25 01:12:00;;;;;;;28.00;16.50;;;;;;;4.56;100.00;99141.16;101042;1328;24482;-32
2022/09/25 01:14:26;;;;;;;34.60;23.10;;;;;;;4.57;100.00;99142.15;101061;1333;23084;-36
2022/09/25 01:16:58;;;;;;;46.40;24.30;;;;;;;4.54;100.00;99142.61;101012;1325;24330;-32
2022/09/25 01:19:28;;;;;;;44.60;24.40;;;;;;;4.53;100.00;99140.46;101028;1334;23090;-32
2022/09/25 01:22:02;;;;;;;30.60;16.90;;;;;;;4.51;100.00;99140.61;101114;1336;23092;-31
2022/09/25 01:24:31;;;;;;;;;;;;;;;4.54;100.00;99142.27;101090;1336;24211;-34
2022/09/25 01:27:12;;;;;;;34.90;19.10;;;;;;;4.57;100.00;99143.22;101088;1327;23264;-36
2022/09/25 01:29:38;;;;;;;45.60;21.40;;;;;;;4.55;100.00;99135.94;101031;1334;23097;-31
2022/09/25 01:32:07;;;;;;;36.00;19.60;;;;;;;4.51;100.00;99133.87;101078;1336;22509;-32
2022/09/25 01:34:39;;;;;;;44.40;18.10;;;;;;;4.50;100.00;99132.53;101077;1334;22514;-35
2022/09/25 01:37:10;;;;;;;42.10;21.70;;;;;;;4.50;100.00;99126.88;101030;1334;24548;-32
2022/09/25 01:39:39;;;;;;;24.10;12.40;;;;;;;4.53;100.00;99132.08;101052;1328;24373;-35
2022/09/25 01:42:09;;;;;;;28.90;14.90;;;;;;;4.56;100.00;99140.26;101070;1328;22720;-35
2022/09/25 01:44:36;;;;;;;35.50;18.30;;;;;;;4.62;100.00;99145.13;100938;1333;23175;-37
2022/09/25 01:47:07;;;;;;;34.20;16.70;;;;;;;4.65;100.00;99141.12;101087;1335;22550;-32
2022/09/25 01:49:36;;;;;;;30.00;19.20;;;;;;;4.65;100.00;99137.30;101084;1334;22497;-37
2022/09/25 01:52:02;;;;;;;35.00;20.60;;;;;;;4.66;100.00;99139.50;101053;1328;23447;-32
2022/09/25 01:54:32;;;;;;;34.60;18.80;;;;;;;4.69;100.00;99140.51;101059;1328;22508;-35
2022/09/25 01:57:04;;;;;;;16.60;9.10;;;;;;;4.70;100.00;99142.20;101154;1334;22755;-31
2022/09/25 01:59:33;;;;;;;29.30;16.60;;;;;;;4.74;100.00;99145.10;100918;1336;22489;-32
2022/09/25 02:01:58;;;;;;;21.40;14.70;;;;;;;4.77;100.00;99142.06;100871;1336;24421;-35
2022/09/25 02:04:30;;;;;;;34.60;13.70;;;;;;;4.79;100.00;99142.61;100814;1321;24369;-31
2022/09/25 02:06:58;;;;;;;30.40;16.90;;;;;;;4.79;100.00;99144.91;101063;1336;22511;-35
2022/09/25 02:09:30;;;;;;;32.80;17.10;;;;;;;4.79;100.00;99145.80;101078;1320;24491;-32
2022/09/25 02:11:58;;;;;;;21.40;11.30;;;;;;;4.79;100.00;99150.18;100936;1336;24395;-32
2022/09/25 02:14:28;;;;;;;29.80;17.90;;;;;;;4.81;100.00;99153.71;101093;1334;22686;-34
2022/09/25 02:16:55;;;;;;;27.60;15.20;;;;;;;4.83;100.00;99153.88;101071;1328;22958;-31
2022/09/25 02:21:53;;;;;;;32.80;17.80;;;;;;;4.87;100.00;99154.35;101109;1334;22865;-33
2022/09/25 02:24:22;;;;;;;26.80;17.30;;;;;;;4.90;100.00;99154.17;101109;1317;24320;-31
2022/09/25 02:26:48;;;;;;;35.30;20.20;;;;;;;4.91;100.00;99150.70;101072;1328;24309;-31
2022/09/25 02:29:14;;;;;;;35.40;19.60;;;;;;;4.93;100.00;99151.22;101043;1328;23351;-31
2022/09/25 02:31:44;;;;;;;30.40;18.70;;;;;;;4.96;100.00;99148.22;101034;1334;24474;-34
2022/09/25 02:34:10;;;;;;;44.40;21.60;;;;;;;4.98;100.00;99145.83;101025;1334;23195;-34
2022/09/25 02:36:35;;;;;;;40.40;19.70;;;;;;;5.00;100.00;99144.05;100880;1327;22708;-36
2022/09/25 02:39:02;;;;;;;28.20;16.30;;;;;;;5.01;100.00;99142.54;100995;1327;23353;-37
2022/09/25 02:41:37;;;;;;;32.90;18.40;;;;;;;5.02;100.00;99137.98;101047;1334;22508;-35
2022/09/25 02:44:09;;;;;;;31.60;18.80;;;;;;;5.05;100.00;99136.52;101028;1327;24488;-36
2022/09/25 02:46:44;;;;;;;36.60;20.60;;;;;;;5.09;100.00;99129.41;101088;1334;24409;-32
2022/09/25 02:49:14;;;;;;;24.00;14.50;;;;;;;5.12;100.00;99127.59;100868;1336;24907;-32
2022/09/25 02:51:50;;;;;;;35.80;20.40;;;;;;;5.19;100.00;99131.30;101074;1326;22884;-35
2022/09/25 02:54:22;;;;;;;23.30;15.00;;;;;;;5.23;100.00;99130.87;101088;1334;22742;-35
2022/09/25 02:56:52;;;;;;;30.70;17.00;;;;;;;5.29;100.00;99132.85;101108;1334;24446;-35
2022/09/25 02:59:20;;;;;;;20.50;13.30;;;;;;;5.33;100.00;99131.16;101052;1335;24491;-35
2022/09/25 03:01:46;;;;;;;36.60;20.10;;;;;;;5.35;100.00;99126.98;101080;1334;22901;-32
2022/09/25 03:04:11;;;;;;;32.30;18.80;;;;;;;5.37;100.00;99129.08;101025;1310;22725;-36
2022/09/25 03:06:37;;;;;;;31.70;17.90;;;;;;;5.37;100.00;99127.11;101079;1324;23107;-32
2022/09/25 03:09:03;;;;;;;41.00;21.90;;;;;;;5.39;100.00;99126.07;101032;1328;24462;-31
2022/09/25 03:11:28;;;;;;;30.60;19.70;;;;;;;5.39;100.00;99121.31;101054;1334;23300;-36
2022/09/25 03:13:56;;;;;;;38.80;18.90;;;;;;;5.38;100.00;99118.15;101069;1331;23200;-34
2022/09/25 03:16:29;;;;;;;47.30;25.70;;;;;;;5.38;100.00;99114.79;101082;1328;23244;-33
2022/09/25 03:18:54;;;;;;;31.10;17.40;;;;;;;5.38;100.00;99110.49;101079;1336;22504;-36
2022/09/25 03:21:20;;;;;;;37.50;24.10;;;;;;;5.38;100.00;99105.40;101057;1336;24478;-31
2022/09/25 03:23:45;;;;;;;36.10;22.30;;;;;;;5.39;100.00;99104.44;101032;1327;22754;-30
2022/09/25 03:26:11;;;;;;;41.80;26.80;;;;;;;5.39;100.00;99104.04;101072;1334;22732;-34
2022/09/25 03:28:37;;;;;;;32.30;20.30;;;;;;;5.39;100.00;99101.70;101046;1334;22980;-33
2022/09/25 03:31:06;;;;;;;30.20;18.60;;;;;;;5.39;100.00;99102.67;101055;1328;25256;-33
2022/09/25 03:33:35;;;;;;;36.80;20.60;;;;;;;5.38;100.00;99105.36;101013;1334;22968;-36
2022/09/25 03:36:02;;;;;;;44.70;22.30;;;;;;;5.39;100.00;99106.23;101073;1335;23167;-32
2022/09/25 03:38:28;;;;;;;38.10;19.00;;;;;;;5.38;100.00;99104.50;101084;1336;24372;-36
2022/09/25 03:40:53;;;;;;;39.40;20.10;;;;;;;5.37;100.00;99097.19;101060;1336;24482;-32
2022/09/25 03:43:19;;;;;;;47.60;19.40;;;;;;;5.37;100.00;99095.62;101049;1328;22719;-37
2022/09/25 03:45:44;;;;;;;37.20;17.40;;;;;;;5.34;100.00;99096.59;101000;1328;24372;-34
2022/09/25 03:48:10;;;;;;;27.80;16.20;;;;;;;5.31;100.00;99092.35;100990;1327;24340;-34
2022/09/25 03:50:38;;;;;;;34.40;19.40;;;;;;;5.29;100.00;99094.01;100993;1328;24341;-34
2022/09/25 03:53:04;;;;;;;19.40;11.90;;;;;;;5.26;100.00;99095.41;100771;1335;22723;-34
2022/09/25 03:55:30;;;;;;;25.80;15.60;;;;;;;5.24;100.00;99099.48;101018;1330;22856;-33
2022/09/25 03:57:56;;;;;;;33.60;16.50;;;;;;;5.22;100.00;99099.52;101026;1334;22894;-30
2022/09/25 04:00:22;;;;;;;32.00;17.80;;;;;;;5.22;100.00;99103.02;101063;1336;23194;-30
2022/09/25 04:02:49;;;;;;;34.80;18.90;;;;;;;5.21;100.00;99106.85;101115;1323;23218;-31
2022/09/25 04:05:15;;;;;;;47.60;22.80;;;;;;;5.21;100.00;99114.36;101097;1328;23103;-30
2022/09/25 04:07:41;;;;;;;37.60;21.70;;;;;;;5.20;100.00;99111.46;100940;1328;23032;-36
2022/09/25 04:10:07;;;;;;;41.00;22.00;;;;;;;5.18;100.00;99104.59;101078;1334;22875;-36
2022/09/25 04:12:33;;;;;;;40.00;26.60;;;;;;;5.18;100.00;99099.66;100963;1335;22731;-33
2022/09/25 04:14:58;;;;;;;53.10;22.30;;;;;;;5.16;100.00;99097.73;101054;1327;23253;-36
2022/09/25 04:17:24;;;;;;;37.30;20.20;;;;;;;5.15;100.00;99098.49;101023;1328;24861;-34
2022/09/25 04:19:50;;;;;;;27.90;16.60;;;;;;;5.15;100.00;99101.06;100790;1336;22748;-35
2022/09/25 04:22:16;;;;;;;29.30;14.80;;;;;;;5.15;100.00;99106.89;101025;1334;24814;-31
2022/09/25 04:27:11;;;;;;;54.10;22.50;;;;;;;5.21;100.00;99118.63;100998;1331;24450;-35
2022/09/25 04:29:36;;;;;;;35.50;19.40;;;;;;;5.23;100.00;99121.69;100988;1328;23097;-35
2022/09/25 04:34:31;;;;;;;36.80;21.50;;;;;;;5.29;100.00;99119.54;101101;1331;22754;-35
2022/09/25 04:36:57;;;;;;;39.80;19.50;;;;;;;5.28;100.00;99120.41;101002;1336;23106;-31
2022/09/25 04:39:22;;;;;;;34.20;20.90;;;;;;;5.26;100.00;99117.71;101087;1336;23323;-35
2022/09/25 04:41:48;;;;;;;35.00;21.50;;;;;;;5.25;100.00;99116.48;100813;1328;23239;-32
2022/09/25 04:44:13;;;;;;;31.70;18.90;;;;;;;5.23;100.00;99115.83;101073;1328;22752;-36
2022/09/25 04:46:39;;;;;;;45.60;21.80;;;;;;;5.20;100.00;99116.62;101034;1328;22742;-36
2022/09/25 04:49:04;;;;;;;23.20;15.30;;;;;;;5.18;100.00;99117.92;101016;1328;24287;-33
2022/09/25 04:51:30;;;;;;;24.50;14.50;;;;;;;5.18;100.00;99117.83;100826;1335;22764;-36
2022/09/25 04:53:56;;;;;;;31.50;17.40;;;;;;;5.16;100.00;99113.20;101015;1335;24353;-33
2022/09/25 04:56:21;;;;;;;25.90;16.20;;;;;;;5.16;100.00;99108.23;101085;1326;23096;-34
2022/09/25 04:58:48;;;;;;;19.30;13.70;;;;;;;5.20;100.00;99107.61;101008;1336;24488;-33
2022/09/25 05:01:14;;;;;;;33.20;17.10;;;;;;;5.21;100.00;99107.90;101057;1334;23093;-33
2022/09/25 05:03:39;;;;;;;35.50;22.60;;;;;;;5.26;100.00;99111.55;100996;1336;22754;-33
2022/09/25 05:06:05;;;;;;;46.00;23.00;;;;;;;5.27;100.00;99111.09;101105;1318;22910;-33
2022/09/25 05:08:31;;;;;;;35.70;22.80;;;;;;;5.27;100.00;99112.19;101073;1318;23047;-33
2022/09/25 05:10:56;;;;;;;28.60;17.20;;;;;;;5.26;100.00;99108.13;101030;1336;24353;-38
2022/09/25 05:13:22;;;;;;;37.70;23.20;;;;;;;5.29;100.00;99112.58;101111;1336;22582;-35
2022/09/25 05:15:48;;;;;;;48.10;26.40;;;;;;;5.34;100.00;99118.63;101015;1334;22868;-32
2022/09/25 05:18:18;;;;;;;29.70;18.10;;;;;;;5.33;100.00;99112.95;101028;1334;24787;-32
2022/09/25 05:20:43;;;;;;;29.50;19.60;;;;;;;5.36;100.00;99120.75;101127;1331;24289;-32
2022/09/25 05:23:09;;;;;;;33.70;19.70;;;;;;;5.34;100.00;99119.53;101016;1334;22903;-36
2022/09/25 05:25:35;;;;;;;38.80;21.40;;;;;;;5.36;100.00;99121.59;101019;1336;22507;-32
2022/09/25 05:28:01;;;;;;;33.30;17.90;;;;;;;5.41;100.00;99125.73;101074;1320;23132;-32
2022/09/25 05:30:29;;;;;;;31.90;18.60;;;;;;;5.41;100.00;99127.06;101068;1334;24370;-35
2022/09/25 05:32:57;;;;;;;36.10;20.30;;;;;;;5.45;100.00;99122.64;101090;1318;24424;-35
2022/09/25 05:35:23;;;;;;;31.40;17.80;;;;;;;5.45;100.00;99117.20;101092;1336;23209;-32
2022/09/25 05:37:49;;;;;;;34.80;20.60;;;;;;;5.50;100.00;99120.80;100923;1336;24357;-32
2022/09/25 05:40:15;;;;;;;28.10;12.70;;;;;;;5.54;100.00;99122.75;101086;1336;23211;-33
2022/09/25 05:42:43;;;;;;;51.50;23.60;;;;;;;5.60;100.00;99122.59;101029;1328;24373;-33
2022/09/25 05:45:10;;;;;;;50.90;24.90;;;;;;;5.63;100.00;99116.53;101029;1334;24465;-36
2022/09/25 05:47:37;;;;;;;32.40;20.60;;;;;;;5.65;100.00;99114.31;101099;1334;23227;-36
2022/09/25 05:50:03;;;;;;;41.20;25.80;;;;;;;5.67;100.00;99113.61;101033;1334;24286;-33
2022/09/25 05:52:30;;;;;;;49.50;25.20;;;;;;;5.67;100.00;99108.62;100851;1339;24327;-35
2022/09/25 05:54:56;;;;;;;35.70;19.00;;;;;;;5.67;100.00;99107.27;101070;1336;24068;-37
2022/09/25 05:57:22;;;;;;;38.60;22.80;;;;;;;5.71;100.00;99116.42;101009;1336;24342;-33
2022/09/25 05:59:49;;;;;;;28.00;19.40;;;;;;;5.72;100.00;99119.89;101051;1321;25676;-37
2022/09/25 06:02:15;;;;;;;44.80;23.90;;;;;;;5.72;100.00;99120.96;100916;1328;22754;-30
2022/09/25 06:04:41;;;;;;;38.40;23.00;;;;;;;5.72;100.00;99118.86;101107;1331;22995;-32
2022/09/25 06:07:08;;;;;;;43.90;22.80;;;;;;;5.72;100.00;99117.63;100842;1338;23337;-35
2022/09/25 06:09:34;;;;;;;32.70;21.00;;;;;;;5.71;100.00;99116.59;101057;1336;22570;-31
2022/09/25 06:12:01;;;;;;;40.10;24.10;;;;;;;5.74;100.00;99115.38;101054;1336;22766;-35
2022/09/25 06:14:26;;;;;;;52.50;23.20;;;;;;;5.76;100.00;99116.08;100944;1339;22534;-31
2022/09/25 06:16:52;;;;;;;52.90;30.00;;;;;;;5.82;100.00;99117.58;101055;1334;23176;-33
2022/09/25 06:19:17;;;;;;;33.80;20.00;;;;;;;5.88;100.00;99118.83;101062;1328;22768;-33
2022/09/25 06:21:43;;;;;;;47.60;26.30;;;;;;;5.96;100.00;99116.31;101068;1339;22754;-36
2022/09/25 06:24:09;;;;;;;50.80;31.10;;;;;;;6.07;100.00;99120.40;101073;1335;25014;-35
2022/09/25 06:26:35;;;;;;;43.00;26.50;;;;;;;6.18;100.00;99124.52;101129;1331;23372;-33
2022/09/25 06:29:02;;;;;;;60.30;36.80;;;;;;;6.29;100.00;99120.54;101163;1326;22751;-37
2022/09/25 06:31:27;;;;;;;43.60;26.20;;;;;;;6.38;100.00;99119.35;101105;1331;23211;-33
2022/09/25 06:33:53;;;;;;;53.40;26.50;;;;;;;6.46;100.00;99117.57;101064;1334;24519;-37
2022/09/25 06:36:19;;;;;;;30.40;20.90;;;;;;;6.59;100.00;99114.48;101126;1333;23103;-37
2022/09/25 06:38:44;;;;;;;62.10;32.30;;;;;;;6.76;100.00;99110.52;101073;1338;23123;-33
2022/09/25 06:41:11;;;;;;;40.50;25.80;;;;;;;6.97;100.00;99113.74;101091;1325;23093;-37
2022/09/25 06:43:36;;;;;;;56.40;26.30;;;;;;;7.17;100.00;99118.14;100942;1331;22725;-36
2022/09/25 06:46:02;;;;;;;40.20;23.40;;;;;;;7.34;100.00;99113.45;101115;1328;22754;-36
2022/09/25 06:48:29;;;;;;;32.60;20.60;;;;;;;7.49;100.00;99110.92;101079;1328;22493;-37
2022/09/25 06:50:55;;;;;;;43.10;22.10;;;;;;;7.66;100.00;99108.73;101122;1339;24545;-37
2022/09/25 06:53:22;;;;;;;33.20;18.30;;;;;;;7.83;100.00;99112.70;101114;1331;22699;-34
2022/09/25 06:55:48;;;;;;;38.70;22.60;;;;;;;8.01;100.00;99110.54;101075;1339;22500;-34
2022/09/25 06:58:16;;;;;;;38.10;20.70;;;;;;;8.20;100.00;99112.86;101085;1324;22878;-37
2022/09/25 07:00:45;;;;;;;42.20;21.30;;;;;;;8.42;100.00;99114.83;101146;1339;25316;-37
2022/09/25 07:05:41;;;;;;;35.60;21.80;;;;;;;8.97;100.00;99116.88;101105;1334;24837;-37
2022/09/25 07:08:07;;;;;;;52.30;30.10;;;;;;;9.32;100.00;99115.02;101075;1336;23128;-37
2022/09/25 07:10:32;;;;;;;38.70;24.90;;;;;;;9.66;100.00;99113.45;101138;1339;23048;-34
2022/09/25 07:12:59;;;;;;;22.10;16.30;;;;;;;10.00;100.00;99117.30;101048;1334;24477;-37
2022/09/25 07:15:25;;;;;;;49.00;22.10;;;;;;;10.30;100.00;99116.45;100956;1324;23106;-34
2022/09/25 07:17:50;;;;;;;33.70;20.40;;;;;;;10.67;100.00;99119.23;101044;1331;23243;-35
2022/09/25 07:20:16;;;;;;;58.50;29.70;;;;;;;10.97;100.00;99108.95;101002;1317;23097;-38
2022/09/25 07:22:42;;;;;;;42.10;23.70;;;;;;;11.09;100.00;99097.44;100990;1331;22738;-35
2022/09/25 07:25:08;;;;;;;38.40;23.50;;;;;;;11.40;100.00;99095.59;101010;1338;24348;-37
2022/09/25 07:27:33;;;;;;;38.10;26.90;;;;;;;11.74;100.00;99100.23;101079;1332;22882;-35
2022/09/25 07:29:59;;;;;;;39.10;25.50;;;;;;;12.13;100.00;99101.90;101088;1333;22753;-37
2022/09/25 07:32:25;;;;;;;34.60;19.30;;;;;;;12.46;100.00;99102.45;101058;1339;24373;-34
2022/09/25 07:34:50;;;;;;;15.90;12.30;;;;;;;12.82;100.00;99102.59;101086;1339;22741;-37
2022/09/25 07:37:16;;;;;;;28.30;15.50;;;;;;;13.12;100.00;99102.77;101047;1339;22546;-35
2022/09/25 07:39:42;;;;;;;24.90;18.10;;;;;;;13.46;100.00;99104.62;101014;1333;22525;-35
2022/09/25 07:42:08;;;;;;;26.90;17.60;;;;;;;13.55;100.00;99093.65;100922;1339;24302;-38
2022/09/25 07:44:34;;;;;;;21.70;13.90;;;;;;;13.55;100.00;99091.36;101099;1331;23242;-35
2022/09/25 07:47:00;;;;;;;21.50;16.40;;;;;;;13.63;100.00;99089.91;101055;1333;22615;-37
2022/09/25 07:49:25;;;;;;;23.70;15.90;;;;;;;13.69;100.00;99086.16;101070;1331;25589;-38
2022/09/25 07:51:51;;;;;;;16.30;12.40;;;;;;;13.81;100.00;99084.19;100856;1334;24445;-35
2022/09/25 07:54:17;;;;;;;36.90;23.30;;;;;;;14.01;100.00;99080.63;101085;1334;22745;-35
2022/09/25 07:56:42;;;;;;;46.80;23.10;;;;;;;14.24;100.00;99082.09;101040;1335;24293;-38
2022/09/25 07:59:08;;;;;;;27.60;15.60;;;;;;;14.47;100.00;99081.37;101022;1334;24266;-35
2022/09/25 08:01:34;;;;;;;32.50;19.10;;;;;;;14.72;100.00;99082.08;101107;1339;24279;-36
2022/09/25 08:04:00;;;;;;;25.90;16.40;;;;;;;15.03;99.97;99077.82;101108;1334;24279;-35
2022/09/25 08:06:26;;;;;;;23.50;15.10;;;;;;;15.44;100.00;99072.08;101062;1331;23085;-35
2022/09/25 08:08:52;;;;;;;22.40;13.60;;;;;;;15.74;96.43;99065.94;101086;1330;22865;-35
2022/09/25 08:11:17;;;;;;;20.60;14.00;;;;;;;16.04;95.44;99057.58;101025;1328;22498;-35
2022/09/25 08:13:43;;;;;;;55.30;38.80;;;;;;;16.18;94.41;99054.91;101048;1328;24305;-35
2022/09/25 08:16:12;;;;;;;18.10;10.90;;;;;;;16.26;89.77;99051.23;101052;1331;24328;-35
2022/09/25 08:18:40;;;;;;;23.40;14.10;;;;;;;16.37;89.04;99050.57;101110;1339;23144;-38
2022/09/25 08:21:06;;;;;;;11.20;8.60;;;;;;;16.54;88.67;99048.74;100997;1328;23055;-35
2022/09/25 08:23:31;;;;;;;15.60;10.50;;;;;;;16.68;86.79;99048.23;100842;1335;22741;-35
2022/09/25 08:25:58;;;;;;;13.50;11.10;;;;;;;16.90;86.29;99046.73;101050;1323;24271;-35
2022/09/25 08:28:23;;;;;;;11.70;9.30;;;;;;;17.15;83.15;99044.38;101107;1336;22887;-38
2022/09/25 08:30:49;;;;;;;18.00;14.90;;;;;;;17.34;80.85;99043.17;100875;1339;22748;-35
2022/09/25 08:33:14;;;;;;;14.30;10.80;;;;;;;17.53;81.12;99036.00;101053;1331;24430;-34
2022/09/25 08:35:40;;;;;;;19.50;10.30;;;;;;;17.68;79.53;99041.92;101014;1328;22856;-35
2022/09/25 08:38:06;;;;;;;14.20;9.90;;;;;;;17.93;79.88;99044.43;100867;1339;22728;-37
2022/09/25 08:40:32;;;;;;;23.10;13.30;;;;;;;17.94;74.66;99041.52;101024;1337;24478;-35
2022/09/25 08:42:58;;;;;;;12.90;9.30;;;;;;;17.82;74.29;99042.84;101119;1336;22847;-37
2022/09/25 08:50:32;;;;;;;13.10;7.50;;;;;;;18.30;73.14;99043.28;100726;1328;483115;-35
2022/09/25 08:53:05;;;;;;;13.00;8.60;;;;;;;18.54;69.11;99043.80;101027;1334;22741;-40
2022/09/25 08:58:05;;;;;;;34.20;21.20;;;;;;;19.06;68.61;99032.73;101072;1331;24411;-37
2022/09/25 09:00:30;;;;;;;11.50;6.90;;;;;;;19.24;67.56;99028.06;101067;1334;24337;-37
2022/09/25 09:02:59;;;;;;;24.50;17.20;;;;;;;19.29;66.18;99026.67;101005;1336;23080;-35
2022/09/25 09:05:28;;;;;;;26.40;18.60;;;;;;;19.47;67.47;99021.07;100774;1336;23516;-34
2022/09/25 09:07:57;;;;;;;14.20;8.80;;;;;;;19.60;66.94;99020.87;100860;1334;22748;-34
2022/09/25 09:10:29;;;;;;;12.20;9.50;;;;;;;19.87;64.94;99017.80;101094;1328;24364;-35
2022/09/25 09:13:00;;;;;;;24.70;11.50;;;;;;;19.82;65.28;99020.94;101044;1336;22513;-37
2022/09/25 09:15:30;;;;;;;17.40;13.50;;;;;;;20.03;65.39;99017.36;101090;1336;24418;-37
2022/09/25 09:17:56;;;;;;;16.80;12.40;;;;;;;20.17;62.14;99012.07;101067;1334;22884;-37
2022/09/25 09:20:26;;;;;;;19.50;15.30;;;;;;;20.28;62.18;99009.64;101030;1336;23084;-37
2022/09/25 09:22:52;;;;;;;8.10;6.40;;;;;;;20.32;60.17;99008.21;101058;1335;22837;-37
2022/09/25 09:25:25;;;;;;;6.40;5.80;;;;;;;20.46;62.01;99010.49;101070;1334;24286;-34
2022/09/25 09:28:14;;;;;;;9.30;6.40;;;;;;;20.82;60.55;99005.73;101128;1336;22509;-34
2022/09/25 09:30:44;;;;;;;9.50;8.40;;;;;;;21.09;59.84;99000.09;101068;1336;22509;-37
2022/09/25 09:33:19;;;;;;;14.10;10.00;;;;;;;21.09;57.63;99003.41;101113;1336;22586;-35
2022/09/25 09:35:46;;;;;;;7.80;6.10;;;;;;;21.10;56.69;99003.15;101069;1318;22755;-37
2022/09/25 09:38:35;;;;;;;9.20;6.90;;;;;;;21.37;55.94;99000.88;100991;1334;24467;-35
2022/09/25 09:41:09;;;;;;;13.70;10.10;;;;;;;21.43;55.21;98997.42;101051;1336;22549;-34
2022/09/25 09:43:38;;;;;;;8.80;6.80;;;;;;;21.48;53.97;98997.69;101060;1336;22518;-37
2022/09/25 09:46:14;;;;;;;6.80;5.50;;;;;;;21.35;52.25;98995.02;100860;1336;24295;-37
2022/09/25 09:48:47;;;;;;;4.50;3.60;;;;;;;21.58;52.08;98990.39;101067;1334;23190;-40
2022/09/25 09:51:18;;;;;;;11.30;7.90;;;;;;;21.78;53.24;98984.63;101062;1327;24488;-37
2022/09/25 09:53:51;;;;;;;58.20;27.80;;;;;;;21.88;49.72;98985.66;100865;1336;23112;-38
2022/09/25 09:56:18;;;;;;;;;;;;;;;21.89;50.52;98981.51;101106;1336;22467;-38
2022/09/25 09:58:45;;;;;;;47.10;25.60;;;;;;;21.91;49.58;98986.15;101076;1326;23160;-37
2022/09/25 10:01:13;;;;;;;16.90;8.40;;;;;;;21.99;50.46;98985.61;100879;1336;23080;-37
2022/09/25 10:03:38;;;;;;;99.90;51.40;;;;;;;22.13;49.98;98982.98;101038;1336;23208;-35
2022/09/25 10:06:07;;;;;;;23.80;14.10;;;;;;;22.31;48.30;98985.73;101066;1336;24410;-37
2022/09/25 10:08:34;;;;;;;27.70;20.60;;;;;;;22.44;48.21;98983.40;101080;1334;24309;-38
2022/09/25 10:10:59;;;;;;;51.70;17.50;;;;;;;22.52;45.45;98980.60;101039;1328;23207;-37
2022/09/25 10:13:31;;;;;;;5.00;3.90;;;;;;;22.47;44.78;98978.83;100963;1328;22890;-37
2022/09/25 10:16:00;;;;;;;2.60;2.40;;;;;;;22.21;42.26;98977.64;101070;1328;23869;-38
2022/09/25 10:18:30;;;;;;;4.60;2.60;;;;;;;21.91;42.56;98977.17;101079;1328;22866;-36
2022/09/25 10:20:58;;;;;;;6.90;1.90;;;;;;;22.04;43.70;98974.70;101084;1331;22500;-38
2022/09/25 10:23:31;;;;;;;2.90;1.90;;;;;;;22.48;42.35;98975.11;101059;1336;24889;-38
2022/09/25 10:25:57;;;;;;;4.70;2.20;;;;;;;22.43;42.12;98969.98;100922;1328;22469;-36
2022/09/25 10:28:27;;;;;;;4.80;2.70;;;;;;;22.47;42.10;98965.30;101038;1336;24373;-35
2022/09/25 10:30:54;;;;;;;6.10;3.80;;;;;;;22.55;41.91;98964.05;101074;1328;24609;-35
2022/09/25 10:33:22;;;;;;;3.00;2.20;;;;;;;22.72;40.31;98969.54;101050;1328;22742;-38
2022/09/25 10:35:48;;;;;;;3.50;1.90;;;;;;;22.71;40.04;98967.63;101039;1336;22520;-38
2022/09/25 10:38:20;;;;;;;2.40;2.00;;;;;;;22.61;40.49;98965.31;101086;1333;24306;-36
2022/09/25 10:40:48;;;;;;;5.80;4.50;;;;;;;22.81;41.25;98959.94;101137;1335;25600;-35
2022/09/25 10:43:17;;;;;;;10.20;3.00;;;;;;;23.14;40.92;98957.02;100907;1336;22833;-36
2022/09/25 10:45:43;;;;;;;3.20;2.30;;;;;;;23.30;40.02;98959.86;101098;1336;22548;-36
2022/09/25 10:50:44;;;;;;;11.10;8.90;;;;;;;23.48;39.75;98952.25;101087;1335;22855;-36
2022/09/25 10:53:25;;;;;;;8.70;7.70;;;;;;;23.30;40.67;98952.58;101045;1328;24468;-38
2022/09/25 10:55:53;;;;;;;5.40;4.20;;;;;;;22.56;40.54;98947.98;101094;1334;23320;-35
2022/09/25 10:58:22;;;;;;;4.50;3.90;;;;;;;21.67;42.45;98948.14;101087;1334;22751;-35
2022/09/25 11:00:48;;;;;;;2.90;2.20;;;;;;;21.10;44.15;98949.95;100796;1335;24459;-37
2022/09/25 11:03:20;;;;;;;8.70;4.30;;;;;;;20.93;44.50;98948.79;101019;1320;25003;-34
2022/09/25 11:05:52;;;;;;;5.10;4.60;;;;;;;21.06;44.14;98948.65;101130;1336;25456;-35
2022/09/25 11:08:17;;;;;;;;;;;;;;;21.29;44.59;98942.81;101073;1336;22479;-37
2022/09/25 11:10:49;;;;;;;19.60;3.60;;;;;;;21.74;44.77;98938.00;101063;1333;26604;-35
2022/09/25 11:13:19;;;;;;;4.40;2.90;;;;;;;22.38;44.59;98935.59;101109;1328;22738;-43
2022/09/25 11:15:47;;;;;;;3.00;2.70;;;;;;;22.86;43.27;98928.59;101149;1334;23327;-35
2022/09/25 11:18:35;;;;;;;2.20;1.90;;;;;;;22.91;42.69;98926.12;101153;1328;23093;-37
2022/09/25 11:21:02;;;;;;;2.60;2.10;;;;;;;22.86;43.18;98921.40;100914;1327;22881;-37
2022/09/25 11:23:33;;;;;;;2.80;2.50;;;;;;;23.07;41.60;98921.14;101044;1334;24790;-37
2022/09/25 11:26:04;;;;;;;3.20;2.40;;;;;;;23.51;42.46;98910.29;100912;1336;22588;-34
2022/09/25 11:28:39;;;;;;;11.90;2.70;;;;;;;24.13;41.21;98913.40;100987;1315;25275;-35
2022/09/25 11:31:29;;;;;;;1.90;1.70;;;;;;;24.16;39.42;98917.56;101096;1328;22901;-37
2022/09/25 11:34:06;;;;;;;1.60;1.40;;;;;;;24.14;39.47;98914.60;101081;1328;23248;-35